Time;durP1;ratioP1;P1;durP2;ratioP2;P2;SDS_P1;SDS_P2;PMS_P1;PMS_P2;Temp;Humidity;BMP_temperature;BMP_pressure;BME280_temperature;BME280_humidity;BME280_pressure;Samples;Min_cycle;Max_cycle;Signal;HPM_P1;HPM_P2
2022/03/06 00:00:25;;;;;;;40.60;19.77;;;;;;;-2.27;64.03;101417.63;1654630;86;21006;-78
2022/03/06 00:02:54;;;;;;;39.67;18.80;;;;;;;-2.32;64.11;101414.03;1654631;86;21002;-76
2022/03/06 00:05:21;;;;;;;34.90;17.07;;;;;;;-2.38;64.36;101421.13;1654800;86;21049;-76
2022/03/06 00:07:48;;;;;;;35.10;17.03;;;;;;;-2.45;64.31;101423.03;1654605;86;21042;-76
2022/03/06 00:10:15;;;;;;;38.57;17.47;;;;;;;-2.49;64.44;101425.92;1654967;86;21446;-75
2022/03/06 00:12:42;;;;;;;39.37;16.77;;;;;;;-2.54;64.44;101425.31;1654773;86;21026;-75
2022/03/06 00:15:09;;;;;;;36.63;17.33;;;;;;;-2.58;64.67;101425.59;1654959;86;21120;-75
2022/03/06 00:17:36;;;;;;;41.10;17.83;;;;;;;-2.60;65.05;101421.27;1654664;86;21090;-77
2022/03/06 00:20:08;;;;;;;31.73;17.50;;;;;;;-2.61;65.23;101420.78;1654980;86;21076;-75
2022/03/06 00:22:37;;;;;;;37.67;17.00;;;;;;;-2.61;65.47;101421.65;1654602;86;21026;-76
2022/03/06 00:25:06;;;;;;;32.67;15.87;;;;;;;-2.62;65.56;101428.03;1654483;86;21556;-76
2022/03/06 00:27:33;;;;;;;32.17;15.87;;;;;;;-2.63;65.71;101423.31;1654686;86;21033;-76
2022/03/06 00:30:00;;;;;;;34.60;15.43;;;;;;;-2.59;65.73;101422.58;1654842;86;21053;-78
2022/03/06 00:32:28;;;;;;;28.37;15.43;;;;;;;-2.55;65.96;101423.16;1654735;86;21483;-76
2022/03/06 00:34:55;;;;;;;33.70;15.97;;;;;;;-2.55;66.11;101419.31;1654859;86;21530;-76
2022/03/06 00:37:22;;;;;;;30.43;16.20;;;;;;;-2.52;66.11;101418.12;1654744;86;21002;-76
2022/03/06 00:39:50;;;;;;;33.07;16.13;;;;;;;-2.49;65.84;101418.22;1654674;86;21118;-77
2022/03/06 00:42:17;;;;;;;24.97;14.23;;;;;;;-2.45;65.82;101421.75;1654620;86;21029;-77
2022/03/06 00:44:44;;;;;;;40.97;20.03;;;;;;;-2.41;66.04;101421.03;1654657;86;21002;-76
2022/03/06 00:47:11;;;;;;;32.87;15.47;;;;;;;-2.35;65.59;101425.50;1654698;86;21030;-77
2022/03/06 00:49:38;;;;;;;23.90;12.00;;;;;;;-2.33;65.20;101426.01;1654824;86;22167;-78
2022/03/06 00:52:05;;;;;;;17.47;10.60;;;;;;;-2.29;65.13;101423.98;1654626;86;21151;-76
2022/03/06 00:54:33;;;;;;;16.20;9.60;;;;;;;-2.23;65.12;101425.88;1660232;86;21044;-77
2022/03/06 00:57:00;;;;;;;15.80;10.10;;;;;;;-2.18;65.08;101419.61;1662080;86;21006;-76
2022/03/06 00:59:33;;;;;;;16.03;10.17;;;;;;;-2.14;65.18;101418.86;1662122;86;20998;-77
2022/03/06 01:01:56;;;;;;;16.03;10.50;;;;;;;-2.14;65.32;101413.72;1662226;85;21044;-76
2022/03/06 01:04:23;;;;;;;18.00;10.57;;;;;;;-2.16;65.47;101413.70;1662185;86;21242;-77
2022/03/06 01:06:50;;;;;;;21.67;12.27;;;;;;;-2.19;65.56;101413.60;1662646;86;21509;-76
2022/03/06 01:09:18;;;;;;;21.83;11.70;;;;;;;-2.18;65.62;101411.48;1662452;86;21013;-77
2022/03/06 01:11:45;;;;;;;18.00;10.83;;;;;;;-2.19;65.82;101413.98;1662517;86;21088;-76
2022/03/06 01:14:12;;;;;;;32.83;16.57;;;;;;;-2.22;65.78;101416.47;1662162;86;21092;-77
2022/03/06 01:16:40;;;;;;;26.67;13.70;;;;;;;-2.26;65.71;101416.79;1662495;86;21795;-77
2022/03/06 01:19:07;;;;;;;27.60;15.00;;;;;;;-2.23;66.09;101413.45;1662080;86;21045;-76
2022/03/06 01:21:34;;;;;;;24.77;14.33;;;;;;;-2.23;66.00;101414.73;1662506;86;21029;-76
2022/03/06 01:24:01;;;;;;;23.43;13.87;;;;;;;-2.27;66.13;101417.63;1662175;86;21026;-78
2022/03/06 01:26:28;;;;;;;26.03;14.23;;;;;;;-2.28;66.32;101421.86;1662414;86;21530;-78
2022/03/06 01:28:55;;;;;;;35.10;17.23;;;;;;;-2.27;66.36;101421.48;1662143;86;22008;-79
2022/03/06 01:31:23;;;;;;;31.27;16.40;;;;;;;-2.24;66.40;101419.00;1662411;86;21093;-76
2022/03/06 01:33:50;;;;;;;32.23;17.17;;;;;;;-2.22;66.44;101421.60;1662149;86;21061;-77
2022/03/06 01:36:17;;;;;;;29.57;18.43;;;;;;;-2.20;66.46;101412.26;1662498;86;21025;-77
2022/03/06 01:38:44;;;;;;;37.93;20.37;;;;;;;-2.17;66.69;101411.06;1662244;86;21109;-76
2022/03/06 01:41:11;;;;;;;25.93;15.37;;;;;;;-2.18;66.66;101406.34;1662219;86;21877;-77
2022/03/06 01:43:38;;;;;;;30.80;17.50;;;;;;;-2.18;66.87;101411.48;1662327;86;21028;-78
2022/03/06 01:46:05;;;;;;;34.57;19.57;;;;;;;-2.17;67.05;101404.22;1662204;86;21029;-78
2022/03/06 01:48:33;;;;;;;30.60;18.53;;;;;;;-2.15;67.13;101403.00;1662510;86;21082;-77
2022/03/06 01:51:00;;;;;;;30.50;16.90;;;;;;;-2.15;67.17;101407.72;1662169;86;21021;-78
2022/03/06 01:53:27;;;;;;;34.13;18.07;;;;;;;-2.13;67.30;101404.80;1660973;86;21128;-76
2022/03/06 01:55:54;;;;;;;26.83;16.00;;;;;;;-2.12;67.34;101403.09;1654680;86;21041;-76
2022/03/06 01:58:22;;;;;;;28.77;15.40;;;;;;;-2.12;67.35;101397.95;1655121;86;21022;-76
2022/03/06 02:00:50;;;;;;;25.70;16.43;;;;;;;-2.11;67.45;101397.98;1654703;86;21044;-77
2022/03/06 02:03:19;;;;;;;27.33;14.13;;;;;;;-2.11;67.49;101402.25;1654937;86;21065;-76
2022/03/06 02:05:48;;;;;;;27.53;16.30;;;;;;;-2.07;67.56;101409.25;1654685;86;21232;-76
2022/03/06 02:08:15;;;;;;;30.27;17.43;;;;;;;-2.03;67.60;101403.36;1654920;86;20950;-79
2022/03/06 02:10:42;;;;;;;30.87;17.30;;;;;;;-2.00;67.59;101399.59;1654676;86;21037;-76
2022/03/06 02:13:09;;;;;;;25.17;16.03;;;;;;;-2.01;67.54;101395.30;1654845;86;21006;-78
2022/03/06 02:15:36;;;;;;;27.10;15.70;;;;;;;-2.04;67.56;101398.64;1654661;86;21022;-76
2022/03/06 02:18:04;;;;;;;28.00;16.97;;;;;;;-2.04;67.59;101395.20;1654770;86;21960;-77
2022/03/06 02:20:31;;;;;;;28.90;15.73;;;;;;;-2.00;67.76;101398.73;1654634;86;21089;-78
2022/03/06 02:22:59;;;;;;;28.67;16.13;;;;;;;-1.98;67.95;101395.80;1654726;86;21021;-76
2022/03/06 02:25:30;;;;;;;29.13;17.47;;;;;;;-1.97;67.75;101399.69;1654793;86;21045;-76
2022/03/06 02:28:00;;;;;;;47.43;28.07;;;;;;;-1.95;67.73;101393.32;1654768;86;21519;-78
2022/03/06 02:30:34;;;;;;;35.52;20.60;;;;;;;-1.95;67.72;101391.62;1654860;86;21977;-78
2022/03/06 02:33:05;;;;;;;36.00;20.93;;;;;;;-1.93;67.71;101394.25;1654681;86;21081;-76
2022/03/06 02:35:32;;;;;;;;;;;;;;;-1.90;67.69;101396.91;1657459;86;22062;-78
2022/03/06 02:38:00;;;;;;;27.93;18.33;;;;;;;-1.89;67.62;101393.50;1654804;86;20161;-78
2022/03/06 02:40:27;;;;;;;33.00;18.90;;;;;;;-1.90;67.64;101391.34;1654942;86;21052;-76
2022/03/06 02:42:55;;;;;;;30.07;17.60;;;;;;;-1.91;67.74;101391.29;1654711;86;21152;-77
2022/03/06 02:45:27;;;;;;;28.03;15.57;;;;;;;-1.93;67.80;101379.70;1654962;86;21010;-77
2022/03/06 02:47:56;;;;;;;24.17;15.37;;;;;;;-1.92;67.72;101384.00;1654700;86;21037;-78
2022/03/06 02:50:27;;;;;;;26.30;14.53;;;;;;;-1.90;67.94;101384.05;1654973;86;21018;-76
2022/03/06 02:52:56;;;;;;;27.93;14.97;;;;;;;-1.88;67.74;101390.13;1654669;86;21670;-78
2022/03/06 02:55:24;;;;;;;26.23;15.50;;;;;;;-1.86;67.61;101374.31;1654604;86;22327;-77
2022/03/06 02:57:52;;;;;;;25.23;14.93;;;;;;;-1.85;67.77;101380.80;1654587;86;21017;-77
2022/03/06 03:00:21;;;;;;;25.23;15.17;;;;;;;-1.84;67.87;101381.66;1654947;86;21037;-77
2022/03/06 03:02:50;;;;;;;27.67;16.05;;;;;;;-1.83;67.81;101380.44;1654825;86;21608;-79
2022/03/06 03:05:18;;;;;;;29.53;16.40;;;;;;;-1.80;67.83;101382.23;1655014;86;21087;-77
2022/03/06 03:07:48;;;;;;;27.90;16.40;;;;;;;-1.77;67.97;101381.41;1654730;86;21811;-77
2022/03/06 03:10:18;;;;;;;30.50;16.65;;;;;;;-1.77;67.92;101380.13;1654915;86;20915;-76
2022/03/06 03:12:46;;;;;;;28.67;16.20;;;;;;;-1.77;68.03;101386.55;1654848;86;21022;-77
2022/03/06 03:15:15;;;;;;;29.83;17.30;;;;;;;-1.74;67.97;101384.10;1655095;86;21041;-77
2022/03/06 03:17:42;;;;;;;35.40;17.60;;;;;;;-1.76;67.88;101380.19;1654689;86;21025;-77
2022/03/06 03:20:12;;;;;;;34.87;17.03;;;;;;;-1.73;67.83;101385.83;1654932;86;21133;-76
2022/03/06 03:22:40;;;;;;;27.58;16.70;;;;;;;-1.73;67.96;101389.69;1654927;86;21495;-76
2022/03/06 03:25:07;;;;;;;29.27;17.17;;;;;;;-1.74;68.06;101381.11;1654866;86;21037;-77
2022/03/06 03:27:35;;;;;;;32.63;16.27;;;;;;;-1.70;68.01;101384.62;1654789;86;21121;-76
2022/03/06 03:30:05;;;;;;;30.27;15.33;;;;;;;-1.68;68.05;101388.12;1654884;86;21653;-76
2022/03/06 03:32:32;;;;;;;26.57;14.90;;;;;;;-1.68;67.79;101394.13;1654788;86;26917;-77
2022/03/06 03:35:00;;;;;;;21.77;14.17;;;;;;;-1.68;67.88;101390.28;1654792;86;21018;-76
2022/03/06 03:37:27;;;;;;;24.13;13.87;;;;;;;-1.66;68.09;101380.91;1654834;86;21029;-78
2022/03/06 03:39:54;;;;;;;21.27;13.80;;;;;;;-1.65;68.13;101383.93;1654640;86;21038;-74
2022/03/06 03:42:22;;;;;;;23.30;13.07;;;;;;;-1.64;68.02;101382.23;1655034;86;21518;-78
2022/03/06 03:44:49;;;;;;;20.40;12.57;;;;;;;-1.68;67.90;101390.70;1654837;86;21157;-77
2022/03/06 03:47:16;;;;;;;19.80;12.60;;;;;;;-1.69;68.10;101390.22;1654838;86;21010;-77
2022/03/06 03:49:43;;;;;;;19.17;12.53;;;;;;;-1.66;68.42;101389.05;1654729;86;21026;-77
2022/03/06 03:52:10;;;;;;;20.03;12.83;;;;;;;-1.65;68.51;101391.64;1654684;86;21523;-78
2022/03/06 03:54:37;;;;;;;22.37;12.87;;;;;;;-1.65;68.30;101389.08;1654905;86;21483;-77
2022/03/06 03:57:04;;;;;;;18.50;12.33;;;;;;;-1.64;68.26;101381.80;1654714;86;21889;-77
2022/03/06 03:59:31;;;;;;;21.20;12.20;;;;;;;-1.64;68.46;101384.38;1654535;86;21106;-77
2022/03/06 04:01:58;;;;;;;18.93;11.70;;;;;;;-1.63;68.42;101377.56;1654741;86;21025;-78
2022/03/06 04:04:26;;;;;;;22.67;12.13;;;;;;;-1.61;68.42;101374.21;1654678;86;21479;-78
2022/03/06 04:06:53;;;;;;;21.10;12.33;;;;;;;-1.60;68.61;101378.52;1654754;86;21049;-78
2022/03/06 04:09:21;;;;;;;16.53;11.57;;;;;;;-1.57;68.68;101381.59;1654641;86;21217;-77
2022/03/06 04:11:48;;;;;;;16.17;10.67;;;;;;;-1.59;68.61;101381.53;1654907;86;21002;-77
2022/03/06 04:14:15;;;;;;;17.10;10.93;;;;;;;-1.53;68.49;101385.97;1654738;86;21030;-78
2022/03/06 04:16:42;;;;;;;17.00;10.90;;;;;;;-1.51;68.23;101384.32;1654940;86;21112;-78
2022/03/06 04:19:10;;;;;;;15.00;10.37;;;;;;;-1.47;68.39;101387.45;1654681;86;21546;-77
2022/03/06 04:21:37;;;;;;;17.57;11.27;;;;;;;-1.46;68.31;101397.31;1654872;86;21126;-77
2022/03/06 04:24:05;;;;;;;18.60;11.03;;;;;;;-1.47;68.36;101392.59;1654613;86;21518;-77
2022/03/06 04:26:33;;;;;;;16.70;10.37;;;;;;;-1.49;68.27;101391.67;1654947;86;21523;-77
2022/03/06 04:29:00;;;;;;;19.30;11.33;;;;;;;-1.50;68.36;101393.77;1654666;86;21571;-77
2022/03/06 04:31:28;;;;;;;16.47;11.23;;;;;;;-1.50;68.39;101390.33;1654946;86;21018;-77
2022/03/06 04:33:55;;;;;;;15.63;10.60;;;;;;;-1.50;68.60;101394.19;1654696;86;21146;-78
2022/03/06 04:36:22;;;;;;;15.60;10.93;;;;;;;-1.50;68.55;101395.05;1654706;86;21540;-78
2022/03/06 04:38:49;;;;;;;14.50;10.00;;;;;;;-1.50;68.48;101394.19;1654706;86;21534;-77
2022/03/06 04:41:16;;;;;;;19.37;11.37;;;;;;;-1.49;68.33;101395.95;1655028;86;21539;-77
2022/03/06 04:43:44;;;;;;;16.03;10.83;;;;;;;-1.47;68.34;101387.45;1654722;86;21558;-77
2022/03/06 04:46:12;;;;;;;15.67;10.17;;;;;;;-1.42;68.51;101384.98;1655005;86;21124;-76
2022/03/06 04:48:39;;;;;;;17.73;11.07;;;;;;;-1.41;68.32;101388.03;1654811;86;20945;-76
2022/03/06 04:51:06;;;;;;;18.33;10.80;;;;;;;-1.42;68.53;101387.14;1655031;86;21005;-77
2022/03/06 04:53:33;;;;;;;15.00;10.40;;;;;;;-1.44;68.51;101383.67;1654875;86;21090;-78
2022/03/06 04:56:01;;;;;;;19.23;11.17;;;;;;;-1.46;68.49;101387.03;1654799;86;22067;-77
2022/03/06 04:58:28;;;;;;;17.40;11.20;;;;;;;-1.47;68.61;101383.59;1654821;86;21490;-77
2022/03/06 05:00:55;;;;;;;15.57;10.60;;;;;;;-1.47;68.66;101387.84;1655116;86;21026;-77
2022/03/06 05:03:22;;;;;;;16.07;10.63;;;;;;;-1.49;68.66;101388.23;1654735;86;21085;-77
2022/03/06 05:05:49;;;;;;;17.13;10.67;;;;;;;-1.49;68.81;101389.52;1655139;86;21464;-77
2022/03/06 05:08:17;;;;;;;19.00;11.07;;;;;;;-1.50;68.96;101390.33;1654919;86;21049;-77
2022/03/06 05:10:44;;;;;;;28.07;15.23;;;;;;;-1.50;68.88;101391.61;1655067;86;21957;-77
2022/03/06 05:13:11;;;;;;;45.37;21.27;;;;;;;-1.51;68.89;101392.45;1654696;86;21518;-77
2022/03/06 05:15:38;;;;;;;38.10;18.93;;;;;;;-1.50;69.10;101384.77;1654812;86;21037;-77
2022/03/06 05:18:06;;;;;;;39.00;17.80;;;;;;;-1.45;69.10;101388.34;1654850;86;20989;-77
2022/03/06 05:20:33;;;;;;;27.60;16.00;;;;;;;-1.42;69.08;101387.56;1654764;86;21496;-77
2022/03/06 05:23:00;;;;;;;27.40;14.53;;;;;;;-1.40;69.07;101399.63;1654844;86;21153;-77
2022/03/06 05:25:27;;;;;;;26.57;14.60;;;;;;;-1.39;68.88;101395.35;1654756;86;21033;-77
2022/03/06 05:27:55;;;;;;;23.07;13.43;;;;;;;-1.38;69.03;101395.83;1654806;86;21041;-78
2022/03/06 05:30:22;;;;;;;20.50;13.20;;;;;;;-1.42;69.10;101393.56;1654755;86;21288;-77
2022/03/06 05:32:50;;;;;;;22.83;13.60;;;;;;;-1.42;69.08;101398.71;1654907;86;21081;-76
2022/03/06 05:35:17;;;;;;;21.00;12.47;;;;;;;-1.41;69.31;101399.61;1654753;86;21045;-77
2022/03/06 05:37:44;;;;;;;20.90;13.10;;;;;;;-1.40;69.35;101394.48;1654805;86;20978;-77
2022/03/06 05:40:11;;;;;;;20.37;12.30;;;;;;;-1.39;69.38;101388.50;1654921;86;21109;-77
2022/03/06 05:42:38;;;;;;;22.47;12.73;;;;;;;-1.40;69.43;101388.06;1654751;86;21093;-77
2022/03/06 05:45:06;;;;;;;22.73;12.73;;;;;;;-1.41;69.55;101395.33;1654945;86;21089;-77
2022/03/06 05:47:33;;;;;;;21.53;12.43;;;;;;;-1.41;69.71;101393.18;1654733;86;21103;-77
2022/03/06 05:50:00;;;;;;;22.30;12.10;;;;;;;-1.40;69.80;101383.34;1654872;86;21022;-78
2022/03/06 05:52:28;;;;;;;20.40;13.63;;;;;;;-1.40;69.85;101391.05;1654767;86;21519;-77
2022/03/06 05:54:56;;;;;;;22.83;14.43;;;;;;;-1.39;69.86;101389.79;1637348;86;39594;-77
2022/03/06 05:57:24;;;;;;;22.30;12.93;;;;;;;-1.42;69.70;101389.70;1666946;86;21084;-77
2022/03/06 05:59:52;;;;;;;19.13;12.67;;;;;;;-1.41;69.83;101388.91;1666964;86;21274;-77
2022/03/06 06:02:22;;;;;;;18.23;12.07;;;;;;;-1.38;69.69;101390.27;1666954;86;21510;-77
2022/03/06 06:04:49;;;;;;;18.20;12.28;;;;;;;-1.34;69.57;101393.78;1667054;86;21047;-77
2022/03/06 06:07:17;;;;;;;24.20;13.70;;;;;;;-1.31;69.62;101388.72;1667060;86;21052;-77
2022/03/06 06:09:44;;;;;;;21.90;14.90;;;;;;;-1.30;69.57;101389.59;1667132;86;21069;-78
2022/03/06 06:12:11;;;;;;;25.47;15.57;;;;;;;-1.29;69.76;101390.93;1667046;86;21221;-77
2022/03/06 06:14:38;;;;;;;27.33;14.40;;;;;;;-1.28;69.57;101391.38;1667298;86;22048;-77
2022/03/06 06:17:05;;;;;;;22.47;14.90;;;;;;;-1.24;69.76;101390.64;1666929;86;21041;-77
2022/03/06 06:19:32;;;;;;;23.63;14.77;;;;;;;-1.20;69.49;101395.45;1667228;86;21491;-77
2022/03/06 06:21:59;;;;;;;23.60;14.97;;;;;;;-1.18;69.38;101397.23;1667199;86;21465;-77
2022/03/06 06:24:26;;;;;;;26.27;15.00;;;;;;;-1.16;69.39;101399.44;1667153;86;22070;-77
2022/03/06 06:26:55;;;;;;;23.40;14.30;;;;;;;-1.13;69.45;101399.52;1666964;86;21100;-79
2022/03/06 06:29:23;;;;;;;21.57;14.07;;;;;;;-1.06;69.56;101394.53;1675355;84;21035;-81
2022/03/06 06:31:52;;;;;;;23.63;14.27;;;;;;;-1.02;69.43;101398.52;1701819;83;21026;-80
2022/03/06 06:34:20;;;;;;;22.77;13.70;;;;;;;-0.97;69.28;101402.48;1701511;83;21080;-79
2022/03/06 06:36:50;;;;;;;20.60;13.57;;;;;;;-0.94;69.50;101404.73;1695742;83;21127;-79
2022/03/06 06:39:17;;;;;;;20.53;13.73;;;;;;;-0.91;69.38;101408.67;1704319;83;21047;-78
2022/03/06 06:41:44;;;;;;;26.87;15.33;;;;;;;-0.87;69.32;101404.89;1688418;85;21097;-79
2022/03/06 06:44:11;;;;;;;27.47;15.90;;;;;;;-0.81;69.34;101406.32;1697465;83;21046;-78
2022/03/06 06:46:38;;;;;;;31.33;16.30;;;;;;;-0.75;69.12;101407.38;1694777;83;21028;-80
2022/03/06 06:49:05;;;;;;;26.03;16.50;;;;;;;-0.69;68.60;101401.50;1688425;85;21728;-79
2022/03/06 06:51:34;;;;;;;28.97;15.73;;;;;;;-0.63;68.46;101401.64;1700348;83;21075;-77
2022/03/06 06:54:01;;;;;;;25.83;16.17;;;;;;;-0.57;68.27;101400.50;1710235;83;21071;-78
2022/03/06 06:56:28;;;;;;;27.53;16.03;;;;;;;-0.52;68.04;101405.36;1694722;83;21049;-78
2022/03/06 06:58:55;;;;;;;39.03;20.57;;;;;;;-0.47;67.95;101411.91;1694826;83;21100;-79
2022/03/06 07:01:22;;;;;;;37.30;21.60;;;;;;;-0.45;67.49;101416.23;1686787;83;21032;-79
2022/03/06 07:03:49;;;;;;;30.07;19.27;;;;;;;-0.42;67.57;101408.14;1685942;83;20952;-79
2022/03/06 07:06:16;;;;;;;32.80;17.77;;;;;;;-0.41;67.51;101406.91;1663585;86;21028;-77
2022/03/06 07:08:43;;;;;;;28.23;18.20;;;;;;;-0.37;67.34;101409.99;1684887;85;21043;-78
2022/03/06 07:11:10;;;;;;;27.67;17.93;;;;;;;-0.32;67.05;101411.40;1691264;83;21052;-79
2022/03/06 07:13:37;;;;;;;33.37;20.17;;;;;;;-0.32;66.94;101402.38;1686410;85;21111;-78
2022/03/06 07:16:04;;;;;;;36.17;20.03;;;;;;;-0.29;67.00;101407.60;1686528;85;21072;-80
2022/03/06 07:18:32;;;;;;;30.40;19.67;;;;;;;-0.24;67.19;101405.59;1686230;85;21076;-80
2022/03/06 07:20:58;;;;;;;29.33;21.20;;;;;;;-0.19;67.10;101401.84;1692599;83;21040;-80
2022/03/06 07:23:26;;;;;;;33.07;20.97;;;;;;;-0.13;67.30;101400.69;1690195;83;21187;-77
2022/03/06 07:25:52;;;;;;;30.93;18.30;;;;;;;-0.06;67.01;101405.55;1695432;83;21135;-78
2022/03/06 07:28:19;;;;;;;31.10;19.07;;;;;;;-0.04;66.70;101400.88;1690397;83;20977;-79
2022/03/06 07:30:48;;;;;;;32.30;19.10;;;;;;;0.02;66.58;101399.28;1686467;85;21272;-78
2022/03/06 07:33:15;;;;;;;32.40;18.37;;;;;;;0.05;66.29;101403.20;1686376;85;21045;-77
2022/03/06 07:35:42;;;;;;;32.70;18.23;;;;;;;0.08;65.96;101403.27;1686338;84;21020;-80
2022/03/06 07:38:09;;;;;;;30.13;19.23;;;;;;;0.09;65.85;101402.03;1686590;84;21951;-77
2022/03/06 07:40:36;;;;;;;35.27;19.60;;;;;;;0.11;65.71;101399.08;1686103;85;21041;-81
2022/03/06 07:43:03;;;;;;;33.40;18.40;;;;;;;0.17;65.82;101396.63;1686461;84;21473;-78
2022/03/06 07:45:30;;;;;;;34.60;19.77;;;;;;;0.23;65.65;101395.87;1686354;85;21036;-80
2022/03/06 07:47:58;;;;;;;43.53;23.37;;;;;;;0.29;65.65;101396.43;1686499;85;21489;-80
2022/03/06 07:50:26;;;;;;;40.77;24.00;;;;;;;0.37;65.68;101399.61;1686162;85;21218;-79
2022/03/06 07:52:56;;;;;;;41.17;24.27;;;;;;;0.42;65.62;101403.16;1686292;84;21028;-79
2022/03/06 07:55:22;;;;;;;53.00;25.50;;;;;;;0.51;65.73;101406.77;1687371;84;21454;-79
2022/03/06 07:57:49;;;;;;;43.57;22.90;;;;;;;0.57;65.50;101400.44;1700792;83;20936;-78
2022/03/06 08:00:16;;;;;;;38.37;22.20;;;;;;;0.62;65.46;101405.27;1695165;83;20994;-77
2022/03/06 08:02:44;;;;;;;33.53;19.60;;;;;;;0.69;65.31;101404.53;1693840;83;21058;-80
2022/03/06 08:05:10;;;;;;;34.80;20.07;;;;;;;0.77;65.20;101403.39;1695503;83;21590;-78
2022/03/06 08:07:37;;;;;;;35.00;21.00;;;;;;;0.87;65.08;101406.18;1693829;84;21506;-80
2022/03/06 08:10:06;;;;;;;35.27;18.60;;;;;;;0.97;65.04;101402.08;1693702;84;21016;-81
2022/03/06 08:12:33;;;;;;;32.00;18.40;;;;;;;1.07;64.78;101403.96;1693817;84;21068;-77
2022/03/06 08:15:00;;;;;;;29.70;18.47;;;;;;;1.14;64.62;101408.83;1694229;83;21819;-78
2022/03/06 08:17:27;;;;;;;44.23;28.67;;;;;;;1.23;64.58;101402.52;1697942;83;21005;-79
2022/03/06 08:19:54;;;;;;;39.97;24.37;;;;;;;1.32;64.37;101405.68;1705632;83;21024;-80
2022/03/06 08:22:22;;;;;;;39.37;24.53;;;;;;;1.37;64.12;101401.47;1692419;84;21469;-79
2022/03/06 08:24:49;;;;;;;36.60;23.07;;;;;;;1.43;64.05;101403.28;1692138;84;21040;-78
2022/03/06 08:27:17;;;;;;;42.17;26.17;;;;;;;1.48;63.65;101401.64;1692248;84;21119;-77
2022/03/06 08:29:44;;;;;;;41.10;27.47;;;;;;;1.53;63.59;101400.88;1692180;84;21526;-79
2022/03/06 08:32:11;;;;;;;28.77;19.07;;;;;;;1.64;63.11;101402.34;1692432;84;21088;-79
2022/03/06 08:34:38;;;;;;;26.43;17.70;;;;;;;1.66;62.93;101397.17;1692138;84;21588;-79
2022/03/06 08:37:05;;;;;;;66.40;44.90;;;;;;;1.71;62.75;101402.00;1692396;84;21028;-79
2022/03/06 08:39:33;;;;;;;98.87;60.33;;;;;;;1.74;62.79;101402.91;1692243;84;21946;-78
2022/03/06 08:42:00;;;;;;;48.67;30.70;;;;;;;1.81;62.58;101405.17;1692302;84;21027;-77
2022/03/06 08:44:27;;;;;;;39.23;24.43;;;;;;;1.83;62.34;101404.78;1692243;84;21036;-78
2022/03/06 08:46:54;;;;;;;65.10;41.63;;;;;;;1.87;62.17;101399.23;1692137;84;21004;-77
2022/03/06 08:49:20;;;;;;;32.37;21.07;;;;;;;1.97;62.12;101401.11;1692199;84;21035;-78
2022/03/06 08:51:47;;;;;;;23.90;16.43;;;;;;;2.04;61.73;101401.62;1692152;84;21054;-79
2022/03/06 08:54:15;;;;;;;21.37;14.40;;;;;;;2.12;60.91;101398.72;1692218;84;21024;-86
2022/03/06 08:56:43;;;;;;;26.50;17.77;;;;;;;2.12;60.64;101401.30;1711829;83;21053;-81
2022/03/06 08:59:10;;;;;;;41.70;20.27;;;;;;;2.18;60.29;101393.62;1714318;83;21502;-81
2022/03/06 09:01:37;;;;;;;21.27;13.77;;;;;;;2.21;59.90;101401.41;1714936;83;21521;-79
2022/03/06 09:04:05;;;;;;;23.13;14.27;;;;;;;2.27;59.73;101401.06;1708473;83;21187;-82
2022/03/06 09:06:32;;;;;;;24.67;15.07;;;;;;;2.30;59.48;101391.64;1686170;85;21040;-81
2022/03/06 09:08:59;;;;;;;22.63;13.63;;;;;;;2.39;59.38;101393.47;1686518;85;21131;-83
2022/03/06 09:11:26;;;;;;;15.97;11.10;;;;;;;2.50;59.31;101397.05;1686265;84;21028;-77
2022/03/06 09:13:53;;;;;;;20.53;15.40;;;;;;;2.56;58.65;101394.97;1686386;85;21084;-78
2022/03/06 09:16:20;;;;;;;20.00;13.37;;;;;;;2.58;58.36;101394.13;1686330;84;21135;-80
2022/03/06 09:18:47;;;;;;;20.37;12.33;;;;;;;2.60;58.38;101392.84;1704387;83;21016;-79
2022/03/06 09:21:15;;;;;;;25.47;15.13;;;;;;;2.66;58.19;101397.68;1714838;83;21063;-80
2022/03/06 09:23:42;;;;;;;24.03;13.30;;;;;;;2.67;57.86;101400.70;1720429;83;21047;-78
2022/03/06 09:26:10;;;;;;;30.53;19.33;;;;;;;2.70;57.76;101395.98;1663010;85;21053;-79
2022/03/06 09:28:36;;;;;;;17.10;10.73;;;;;;;2.73;57.57;101395.16;1691961;83;21205;-78
2022/03/06 09:31:03;;;;;;;19.33;14.20;;;;;;;2.79;57.46;101396.08;1690185;83;20996;-79
2022/03/06 09:33:30;;;;;;;18.73;12.07;;;;;;;2.84;57.29;101400.02;1693561;83;21020;-78
2022/03/06 09:35:58;;;;;;;19.10;12.10;;;;;;;2.90;57.27;101400.94;1715069;83;20984;-76
2022/03/06 09:38:28;;;;;;;28.17;16.17;;;;;;;2.99;57.19;101404.48;1714980;83;21035;-76
2022/03/06 09:40:57;;;;;;;19.43;12.67;;;;;;;3.02;56.91;101397.62;1715048;83;21949;-76
2022/03/06 09:43:25;;;;;;;23.47;14.00;;;;;;;3.05;56.72;101389.89;1715074;83;21039;-75
2022/03/06 09:46:04;;;;;;;24.57;15.00;;;;;;;3.08;56.58;101389.05;1715039;83;21040;-76
2022/03/06 09:48:32;;;;;;;19.03;13.23;;;;;;;3.12;56.60;101391.66;1714663;83;20985;-76
2022/03/06 09:51:02;;;;;;;19.60;11.37;;;;;;;3.15;56.29;101393.42;1714957;83;21123;-75
2022/03/06 09:53:29;;;;;;;19.42;13.08;;;;;;;3.18;56.15;101392.15;1715164;83;22188;-76
2022/03/06 09:55:56;;;;;;;15.53;12.87;;;;;;;3.26;56.06;101396.11;1714497;83;21040;-76
2022/03/06 09:58:24;;;;;;;16.37;11.73;;;;;;;3.28;55.92;101398.30;1711830;83;21109;-76
2022/03/06 10:00:51;;;;;;;15.73;10.67;;;;;;;3.34;55.94;101403.09;1702524;83;21089;-76
2022/03/06 10:03:21;;;;;;;18.17;11.30;;;;;;;3.44;55.68;101403.19;1683755;85;21014;-75
2022/03/06 10:05:48;;;;;;;;;;;;;;;3.51;55.28;101402.37;1686076;85;22018;-76
2022/03/06 10:08:24;;;;;;;13.07;8.50;;;;;;;3.54;54.35;101399.80;1683785;85;20167;-76
2022/03/06 10:11:00;;;;;;;13.17;8.43;;;;;;;3.51;54.25;101399.77;1664063;85;21096;-76
2022/03/06 10:13:43;;;;;;;18.60;10.67;;;;;;;3.51;54.27;101404.52;1683159;85;21081;-77
2022/03/06 10:16:23;;;;;;;13.07;8.83;;;;;;;3.55;54.00;101410.63;1687158;83;21477;-77
2022/03/06 10:18:55;;;;;;;13.10;8.45;;;;;;;3.51;53.68;101405.82;1679391;84;21230;-77
2022/03/06 10:21:28;;;;;;;11.17;7.83;;;;;;;3.51;53.59;101401.94;1682529;85;21028;-74
2022/03/06 10:24:00;;;;;;;13.90;8.30;;;;;;;3.53;53.24;101400.66;1661749;86;21018;-76
2022/03/06 10:26:30;;;;;;;11.70;8.73;;;;;;;3.55;53.12;101398.96;1689350;85;21518;-77
2022/03/06 10:29:04;;;;;;;13.87;9.63;;;;;;;3.51;53.17;101395.88;1682428;85;21040;-78
2022/03/06 10:31:34;;;;;;;14.10;9.70;;;;;;;3.49;52.86;101390.70;1671006;85;21190;-76
2022/03/06 10:34:07;;;;;;;19.00;12.13;;;;;;;3.44;52.58;101397.58;1662722;85;21558;-76
2022/03/06 10:36:51;;;;;;;11.90;9.13;;;;;;;3.39;52.46;101399.25;1683409;85;21043;-77
2022/03/06 10:39:22;;;;;;;13.67;9.47;;;;;;;3.43;52.42;101394.95;1683760;85;20959;-76
2022/03/06 10:41:52;;;;;;;15.70;9.63;;;;;;;3.40;52.36;101388.02;1704840;83;21482;-78
2022/03/06 10:44:22;;;;;;;13.00;8.70;;;;;;;3.44;52.35;101387.64;1711581;83;21057;-78
2022/03/06 10:47:04;;;;;;;;;;;;;;;3.45;52.18;101385.05;1683035;84;21526;-78
2022/03/06 10:49:33;;;;;;;15.63;9.27;;;;;;;3.47;51.97;101387.23;1690317;84;20179;-78
2022/03/06 10:52:16;;;;;;;10.67;8.00;;;;;;;3.52;52.11;101383.36;1711879;83;21077;-77
2022/03/06 10:54:51;;;;;;;11.93;8.73;;;;;;;3.50;51.85;101376.88;1712388;83;21044;-77
2022/03/06 10:57:20;;;;;;;10.60;7.97;;;;;;;3.54;51.96;101381.65;1713642;83;21715;-79
2022/03/06 10:59:49;;;;;;;10.57;8.37;;;;;;;3.54;51.59;101379.92;1714778;83;21000;-77
2022/03/06 11:02:18;;;;;;;12.83;8.97;;;;;;;3.55;51.45;101375.63;1714791;83;21437;-78
2022/03/06 11:04:53;;;;;;;15.30;9.57;;;;;;;3.56;51.53;101374.76;1714894;83;21036;-79
2022/03/06 11:07:18;;;;;;;14.07;9.50;;;;;;;3.57;51.38;101379.08;1714623;83;20992;-78
2022/03/06 11:09:46;;;;;;;12.67;9.53;;;;;;;3.60;51.45;101376.94;1711031;83;21177;-76
2022/03/06 11:12:14;;;;;;;16.23;10.27;;;;;;;3.60;51.42;101372.61;1714735;83;20908;-77
2022/03/06 11:14:42;;;;;;;15.40;9.73;;;;;;;3.62;51.77;101375.23;1715047;83;21024;-77
2022/03/06 11:17:09;;;;;;;12.83;9.40;;;;;;;3.67;51.81;101369.22;1714795;83;21031;-78